createdAt,value
2023-05-21T00:05:24.546Z,98452.75
2023-05-21T00:08:31.424Z,98450.47
2023-05-21T00:11:37.548Z,98446.97
2023-05-21T00:14:44.364Z,98443.25
2023-05-21T00:17:50.665Z,98442.59
2023-05-21T00:21:00.120Z,98439.06
2023-05-21T00:24:06.245Z,98454.97
2023-05-21T00:27:13.441Z,98462.19
2023-05-21T00:30:19.671Z,98454.59
2023-05-21T00:33:26.814Z,98444.50
2023-05-21T00:36:56.046Z,98451.13
2023-05-21T00:40:05.297Z,98445.56
2023-05-21T00:43:11.681Z,98441.00
2023-05-21T00:46:23.076Z,98438.13
2023-05-21T00:49:29.522Z,98434.22
2023-05-21T00:52:42.505Z,98431.31
2023-05-21T00:55:49.647Z,98432.97
2023-05-21T00:58:59.136Z,98430.28
2023-05-21T01:02:07.059Z,98431.13
2023-05-21T01:05:16.621Z,98422.63
2023-05-21T01:08:35.193Z,98428.81
2023-05-21T01:11:48.158Z,98426.78
2023-05-21T01:14:59.641Z,98421.81
2023-05-21T01:18:14.653Z,98411.09
2023-05-21T01:21:44.183Z,98417.25
2023-05-21T01:25:15.315Z,98410.84
2023-05-21T01:28:37.121Z,98401.50
2023-05-21T01:32:16.630Z,98392.38
2023-05-21T01:35:44.942Z,98401.84
2023-05-21T01:39:18.199Z,98399.31
2023-05-21T01:42:48.847Z,98397.94
2023-05-21T01:46:00.441Z,98396.28
2023-05-21T01:49:11.159Z,98388.59
2023-05-21T01:52:21.700Z,98388.34
2023-05-21T01:55:28.481Z,98379.06
2023-05-21T01:58:38.495Z,98387.50
2023-05-21T02:01:44.652Z,98386.88
2023-05-21T02:04:51.920Z,98392.19
2023-05-21T02:08:00.462Z,98389.72
2023-05-21T02:11:08.414Z,98391.47
2023-05-21T02:14:17.170Z,98385.22
2023-05-21T02:17:24.798Z,98372.78
2023-05-21T02:20:38.830Z,98374.97
2023-05-21T02:23:45.738Z,98374.97
2023-05-21T02:26:52.749Z,98371.72
2023-05-21T02:30:15.021Z,98369.44
2023-05-21T02:33:22.274Z,98370.44
2023-05-21T02:36:33.551Z,98375.63
2023-05-21T02:39:40.902Z,98369.44
2023-05-21T02:42:47.633Z,98370.44
2023-05-21T02:46:09.708Z,98342.53
2023-05-21T02:49:30.689Z,98353.06
2023-05-21T02:52:42.675Z,98349.81
2023-05-21T02:55:49.462Z,98362.63
2023-05-21T02:58:55.547Z,98358.13
2023-05-21T03:02:05.203Z,98359.72
2023-05-21T03:05:22.876Z,98352.28
2023-05-21T03:08:30.462Z,98361.31
2023-05-21T03:11:36.607Z,98358.72
2023-05-21T03:14:44.420Z,98351.94
2023-05-21T03:17:56.066Z,98363.09
2023-05-21T03:21:13.555Z,98359.41
2023-05-21T03:24:35.573Z,98363.53
2023-05-21T03:28:00.389Z,98364.59
2023-05-21T03:31:54.786Z,98364.34
2023-05-21T03:35:18.718Z,98356.50
2023-05-21T03:38:25.879Z,98356.59
2023-05-21T03:41:34.273Z,98355.22
2023-05-21T03:44:47.730Z,98360.91
2023-05-21T03:48:25.882Z,98351.78
2023-05-21T03:51:35.384Z,98351.69
2023-05-21T03:54:41.593Z,98343.75
2023-05-21T03:57:49.740Z,98344.03
2023-05-21T04:04:57.835Z,98346.72
2023-05-21T04:08:14.607Z,98350.66
2023-05-21T04:11:21.243Z,98351.69
2023-05-21T04:14:28.366Z,98354.28
2023-05-21T04:17:34.915Z,98353.19
2023-05-21T04:20:43.202Z,98363.50
2023-05-21T04:23:54.575Z,98365.44
2023-05-21T04:27:11.224Z,98362.78
2023-05-21T04:30:17.320Z,98372.66
2023-05-21T04:33:33.528Z,98363.72
2023-05-21T04:36:39.623Z,98365.47
2023-05-21T04:39:49.956Z,98361.09
2023-05-21T04:43:07.740Z,98367.00
2023-05-21T04:46:41.910Z,98367.75
2023-05-21T04:49:51.253Z,98376.06
2023-05-21T04:52:59.068Z,98384.22
2023-05-21T04:56:10.186Z,98375.16
2023-05-21T04:59:17.782Z,98363.28
2023-05-21T05:02:38.920Z,98380.53
2023-05-21T05:06:00.529Z,98373.50
2023-05-21T05:09:25.387Z,98370.47
2023-05-21T05:12:49.860Z,98372.31
2023-05-21T05:16:13.246Z,98360.47
2023-05-21T05:19:36.413Z,98371.63
2023-05-21T05:22:57.494Z,98363.59
2023-05-21T05:26:18.753Z,98373.34
2023-05-21T05:29:42.382Z,98372.94
2023-05-21T05:33:08.956Z,98373.38
2023-05-21T05:36:30.143Z,98377.66
2023-05-21T05:39:51.514Z,98371.44
2023-05-21T05:43:12.676Z,98372.91
2023-05-21T05:46:36.572Z,98375.63
2023-05-21T05:50:00.574Z,98378.59
2023-05-21T05:53:21.925Z,98374.78
2023-05-21T05:56:42.818Z,98375.66
2023-05-21T06:00:05.227Z,98375.03
2023-05-21T06:03:43.070Z,98379.22
2023-05-21T06:07:07.559Z,98371.41
2023-05-21T06:10:29.821Z,98372.63
2023-05-21T06:13:58.413Z,98374.03
2023-05-21T06:17:19.420Z,98370.59
2023-05-21T06:20:44.252Z,98366.25
2023-05-21T06:24:25.783Z,98357.78
2023-05-21T06:27:53.215Z,98360.50
2023-05-21T06:31:04.684Z,98358.38
2023-05-21T06:34:13.457Z,98360.44
2023-05-21T06:37:26.470Z,98360.63
2023-05-21T06:40:34.023Z,98354.91
2023-05-21T06:43:40.027Z,98354.22
2023-05-21T06:47:19.532Z,98355.63
2023-05-21T06:50:35.302Z,98358.91
2023-05-21T06:53:58.825Z,98350.47
2023-05-21T06:57:06.546Z,98349.91
2023-05-21T07:00:16.480Z,98346.38
2023-05-21T07:03:23.458Z,98349.66
2023-05-21T07:06:47.383Z,98349.94
2023-05-21T07:10:13.712Z,98345.78
2023-05-21T07:13:34.750Z,98346.31
2023-05-21T07:16:57.026Z,98341.69
2023-05-21T07:20:18.416Z,98328.00
2023-05-21T07:23:28.850Z,98332.44
2023-05-21T07:26:37.841Z,98335.78
2023-05-21T07:29:44.717Z,98326.78
2023-05-21T07:32:50.801Z,98346.16
2023-05-21T07:35:58.239Z,98341.72
2023-05-21T07:39:05.430Z,98339.00
2023-05-21T07:42:16.803Z,98326.38
2023-05-21T07:45:26.170Z,98329.56
2023-05-21T07:48:40.827Z,98330.69
2023-05-21T07:51:51.772Z,98321.22
2023-05-21T07:54:59.260Z,98324.06
2023-05-21T07:58:08.221Z,98328.09
2023-05-21T08:01:31.411Z,98326.53
2023-05-21T08:04:52.898Z,98329.69
2023-05-21T08:08:20.943Z,98317.22
2023-05-21T08:11:44.288Z,98315.56
2023-05-21T08:15:09.672Z,98318.78
2023-05-21T08:18:36.532Z,98320.34
2023-05-21T08:21:58.058Z,98319.00
2023-05-21T08:25:19.430Z,98317.56
2023-05-21T08:28:42.497Z,98317.78
2023-05-21T08:32:18.817Z,98323.44
2023-05-21T08:35:40.335Z,98321.84
2023-05-21T08:39:29.772Z,98318.41
2023-05-21T08:42:53.237Z,98315.00
2023-05-21T08:46:27.162Z,98315.50
2023-05-21T08:49:56.523Z,98300.16
2023-05-21T08:53:27.426Z,98309.59
2023-05-21T08:56:51.302Z,98307.66
2023-05-21T09:00:21.140Z,98309.78
2023-05-21T09:03:44.582Z,98296.72
2023-05-21T09:07:17.257Z,98293.94
2023-05-21T09:10:56.332Z,98298.56
2023-05-21T09:14:10.420Z,98301.78
2023-05-21T09:17:38.037Z,98296.19
2023-05-21T09:20:59.920Z,98308.94
2023-05-21T09:24:25.032Z,98303.66
2023-05-21T09:27:32.118Z,98297.22
2023-05-21T09:30:39.484Z,98293.19
2023-05-21T09:33:51.110Z,98304.16
2023-05-21T09:37:08.524Z,98306.38
2023-05-21T09:40:24.936Z,98294.13
2023-05-21T09:43:34.010Z,98294.09
2023-05-21T09:46:44.803Z,98292.44
2023-05-21T09:50:06.226Z,98292.91
2023-05-21T09:53:27.488Z,98292.59
2023-05-21T09:56:51.289Z,98295.38
2023-05-21T10:00:21.660Z,98283.97
2023-05-21T10:03:45.467Z,98288.81
2023-05-21T10:07:07.160Z,98296.25
2023-05-21T10:10:31.244Z,98276.22
2023-05-21T10:13:48.250Z,98277.69
2023-05-21T10:16:57.822Z,98266.47
2023-05-21T10:20:06.694Z,98266.63
2023-05-21T10:23:13.987Z,98268.53
2023-05-21T10:26:23.733Z,98265.66
2023-05-21T10:29:49.194Z,98263.94
2023-05-21T10:33:12.024Z,98264.38
2023-05-21T10:36:35.069Z,98265.13
2023-05-21T10:39:57.333Z,98263.56
2023-05-21T10:43:48.642Z,98259.09
2023-05-21T10:47:46.650Z,98261.09
2023-05-21T10:51:27.054Z,98252.97
2023-05-21T10:55:08.172Z,98266.31
2023-05-21T10:59:05.785Z,98258.50
2023-05-21T11:02:19.330Z,98256.84
2023-05-21T11:05:44.135Z,98257.34
2023-05-21T11:08:55.504Z,98256.44
2023-05-21T11:12:05.033Z,98259.56
2023-05-21T11:15:19.478Z,98236.66
2023-05-21T11:19:01.020Z,98239.19
2023-05-21T11:22:26.201Z,98247.75
2023-05-21T11:25:35.637Z,98249.84
2023-05-21T11:28:42.622Z,98236.03
2023-05-21T11:31:51.556Z,98233.03
2023-05-21T11:35:05.091Z,98234.31
2023-05-21T11:38:16.213Z,98236.47
2023-05-21T11:41:24.623Z,98235.50
2023-05-21T11:44:45.286Z,98229.38
2023-05-21T11:47:53.077Z,98227.69
2023-05-21T11:51:03.762Z,98228.03
2023-05-21T11:54:15.637Z,98234.28
2023-05-21T11:57:22.247Z,98232.22
2023-05-21T12:00:29.325Z,98231.59
2023-05-21T12:03:38.525Z,98223.03
2023-05-21T12:06:50.916Z,98228.38
2023-05-21T12:09:57.005Z,98223.13
2023-05-21T12:13:05.623Z,98220.88
2023-05-21T12:16:12.319Z,98231.00
2023-05-21T12:19:22.464Z,98226.53
2023-05-21T12:22:31.230Z,98221.13
2023-05-21T12:25:38.187Z,98215.19
2023-05-21T12:28:44.602Z,98215.84
2023-05-21T12:31:53.047Z,98212.25
2023-05-21T12:35:00.312Z,98216.31
2023-05-21T12:38:11.270Z,98211.53
2023-05-21T12:41:21.649Z,98216.16
2023-05-21T12:44:36.620Z,98212.38
2023-05-21T12:47:42.904Z,98216.63
2023-05-21T12:50:50.069Z,98208.59
2023-05-21T12:53:58.849Z,98206.09
2023-05-21T12:57:16.678Z,98205.47
2023-05-21T13:00:27.657Z,98208.75
2023-05-21T13:03:36.292Z,98208.69
2023-05-21T13:06:48.450Z,98205.22
2023-05-21T13:09:59.884Z,98200.03
2023-05-21T13:13:06.097Z,98190.72
2023-05-21T13:16:13.316Z,98196.44
2023-05-21T13:19:19.720Z,98189.94
2023-05-21T13:22:26.935Z,98192.09
2023-05-21T13:25:43.163Z,98193.25
2023-05-21T13:29:04.133Z,98189.13
2023-05-21T13:32:26.256Z,98191.75
2023-05-21T13:35:34.958Z,98198.25
2023-05-21T13:38:40.976Z,98186.75
2023-05-21T13:41:50.682Z,98188.19
2023-05-21T13:44:57.316Z,98180.63
2023-05-21T13:48:04.423Z,98189.13
2023-05-21T13:51:37.912Z,98191.25
2023-05-21T13:55:00.204Z,98181.22
2023-05-21T13:58:24.085Z,98178.47
2023-05-21T14:01:45.807Z,98183.75
2023-05-21T14:05:07.219Z,98175.34
2023-05-21T14:08:29.806Z,98173.97
2023-05-21T14:11:51.215Z,98175.13
2023-05-21T14:15:03.201Z,98183.59
2023-05-21T14:18:12.766Z,98167.00
2023-05-21T14:21:19.642Z,98171.66
2023-05-21T14:24:25.862Z,98187.13
2023-05-21T14:27:32.847Z,98173.97
2023-05-21T14:30:41.627Z,98166.59
2023-05-21T14:33:48.936Z,98175.28
2023-05-21T14:36:56.509Z,98171.63
2023-05-21T14:40:03.605Z,98178.72
2023-05-21T14:43:09.869Z,98174.31
2023-05-21T14:46:19.627Z,98181.00
2023-05-21T14:49:40.654Z,98184.84
2023-05-21T14:53:02.381Z,98174.50
2023-05-21T14:56:27.360Z,98172.00
2023-05-21T14:59:48.457Z,98182.97
2023-05-21T15:03:13.174Z,98176.75
2023-05-21T15:06:36.104Z,98178.25
2023-05-21T15:09:57.408Z,98171.59
2023-05-21T15:13:18.615Z,98180.59
2023-05-21T15:16:39.853Z,98184.06
2023-05-21T15:20:11.154Z,98187.63
2023-05-21T15:23:35.393Z,98189.19
2023-05-21T15:27:03.517Z,98180.69
2023-05-21T15:30:27.616Z,98176.13
2023-05-21T15:33:52.240Z,98175.75
2023-05-21T15:37:22.155Z,98172.16
2023-05-21T15:40:44.587Z,98173.22
2023-05-21T15:44:05.793Z,98172.22
2023-05-21T15:47:26.888Z,98174.44
2023-05-21T15:50:48.229Z,98175.00
2023-05-21T15:54:12.063Z,98176.75
2023-05-21T15:57:33.877Z,98187.53
2023-05-21T16:00:54.984Z,98173.78
2023-05-21T16:04:01.925Z,98173.09
2023-05-21T16:07:09.453Z,98192.38
2023-05-21T16:10:19.235Z,98189.72
2023-05-21T16:13:25.695Z,98184.81
2023-05-21T16:16:32.836Z,98196.16
2023-05-21T16:19:41.168Z,98189.78
2023-05-21T16:22:48.670Z,98188.59
2023-05-21T16:25:57.492Z,98187.34
2023-05-21T16:29:18.154Z,98189.94
2023-05-21T16:32:39.954Z,98180.16
2023-05-21T16:35:46.957Z,98187.94
2023-05-21T16:38:53.393Z,98191.75
2023-05-21T16:42:17.069Z,98194.31
2023-05-21T16:45:43.343Z,98185.59
2023-05-21T16:49:13.679Z,98186.72
2023-05-21T16:52:43.729Z,98184.56
2023-05-21T16:56:06.631Z,98195.66
2023-05-21T16:59:16.278Z,98195.94
2023-05-21T17:02:22.539Z,98197.63
2023-05-21T17:05:29.677Z,98199.16
2023-05-21T17:08:36.770Z,98197.28
2023-05-21T17:11:45.228Z,98192.41
2023-05-21T17:14:59.082Z,98191.63
2023-05-21T17:18:06.462Z,98191.00
2023-05-21T17:21:13.270Z,98188.56
2023-05-21T17:24:20.369Z,98193.00
2023-05-21T17:27:26.651Z,98198.00
2023-05-21T17:30:43.785Z,98192.75
2023-05-21T17:37:23.551Z,98200.19
2023-05-21T17:40:30.504Z,98206.59
2023-05-21T17:43:36.713Z,98200.78
2023-05-21T17:46:43.966Z,98206.59
2023-05-21T17:49:50.178Z,98210.19
2023-05-21T17:52:59.694Z,98200.84
2023-05-21T17:56:11.593Z,98207.41
2023-05-21T17:59:19.026Z,98211.91
2023-05-21T18:02:26.361Z,98212.13
2023-05-21T18:05:36.721Z,98205.72
2023-05-21T18:08:45.443Z,98205.78
2023-05-21T18:11:52.565Z,98206.78
2023-05-21T18:15:20.711Z,98210.06
2023-05-21T18:18:31.242Z,98209.88
2023-05-21T18:21:41.555Z,98204.16
2023-05-21T18:24:57.662Z,98211.00
2023-05-21T18:28:03.886Z,98206.56
2023-05-21T18:31:10.850Z,98199.97
2023-05-21T18:34:17.770Z,98196.97
2023-05-21T18:37:24.795Z,98202.50
2023-05-21T18:40:55.774Z,98206.50
2023-05-21T18:44:16.722Z,98204.03
2023-05-21T18:47:43.247Z,98196.50
2023-05-21T18:51:04.561Z,98201.31
2023-05-21T18:54:32.726Z,98206.13
2023-05-21T18:57:56.366Z,98200.94
2023-05-21T19:01:09.777Z,98205.75
2023-05-21T19:04:31.303Z,98216.56
2023-05-21T19:07:38.146Z,98223.38
2023-05-21T19:10:45.716Z,98226.28
2023-05-21T19:14:03.889Z,98223.78
2023-05-21T19:17:16.732Z,98222.25
2023-05-21T19:20:28.231Z,98226.47
2023-05-21T19:23:53.981Z,98228.28
2023-05-21T19:27:15.155Z,98231.28
2023-05-21T19:30:38.981Z,98230.88
2023-05-21T19:34:00.198Z,98227.00
2023-05-21T19:37:22.132Z,98230.69
2023-05-21T19:40:43.484Z,98231.44
2023-05-21T19:44:04.517Z,98242.38
2023-05-21T19:47:14.179Z,98233.16
2023-05-21T19:50:20.810Z,98238.34
2023-05-21T19:53:28.131Z,98239.84
2023-05-21T19:56:34.111Z,98235.56
2023-05-21T19:59:41.177Z,98236.63
2023-05-21T20:02:50.063Z,98228.41
2023-05-21T20:05:57.564Z,98224.94
2023-05-21T20:09:19.109Z,98231.88
2023-05-21T20:12:40.547Z,98227.22
2023-05-21T20:16:05.088Z,98219.25
2023-05-21T20:19:32.235Z,98211.97
2023-05-21T20:22:53.370Z,98213.72
2023-05-21T20:26:15.325Z,98225.44
2023-05-21T20:29:22.178Z,98220.50
2023-05-21T20:32:31.527Z,98213.81
2023-05-21T20:35:58.665Z,98215.38
2023-05-21T20:39:06.605Z,98213.19
2023-05-21T20:42:15.291Z,98207.47
2023-05-21T20:45:39.690Z,98214.34
2023-05-21T20:48:45.920Z,98201.31
2023-05-21T20:51:55.458Z,98204.34
2023-05-21T20:55:04.832Z,98203.00
2023-05-21T20:58:14.915Z,98204.53
2023-05-21T21:01:21.835Z,98198.44
2023-05-21T21:04:28.914Z,98202.81
2023-05-21T21:07:38.840Z,98205.09
2023-05-21T21:10:47.268Z,98202.19
2023-05-21T21:13:53.583Z,98205.75
2023-05-21T21:17:04.327Z,98211.38
2023-05-21T21:20:14.071Z,98205.84
2023-05-21T21:23:23.742Z,98209.09
2023-05-21T21:26:29.959Z,98208.97
2023-05-21T21:29:41.710Z,98210.84
2023-05-21T21:33:10.001Z,98207.63
2023-05-21T21:36:42.992Z,98208.47
2023-05-21T21:40:07.649Z,98203.94
2023-05-21T21:43:14.888Z,98208.31
2023-05-21T21:46:21.204Z,98213.50
2023-05-21T21:49:27.916Z,98210.25
2023-05-21T21:52:36.530Z,98213.75
2023-05-21T21:55:46.821Z,98207.56
2023-05-21T21:58:52.768Z,98213.97
2023-05-21T22:02:06.837Z,98215.81
2023-05-21T22:05:34.724Z,98218.13
2023-05-21T22:08:41.685Z,98219.59
2023-05-21T22:11:51.130Z,98216.50
2023-05-21T22:14:59.264Z,98219.00
2023-05-21T22:18:31.947Z,98221.69
2023-05-21T22:22:05.098Z,98216.72
2023-05-21T22:25:26.268Z,98216.31
2023-05-21T22:28:50.652Z,98207.44
2023-05-21T22:32:11.657Z,98192.19
2023-05-21T22:35:32.487Z,98184.16
2023-05-21T22:38:53.381Z,98184.16
2023-05-21T22:42:14.437Z,98186.00
2023-05-21T22:45:41.052Z,98187.44
2023-05-21T22:49:02.144Z,98192.41
2023-05-21T22:52:24.435Z,98188.47
2023-05-21T22:55:45.397Z,98189.09
2023-05-21T22:59:06.278Z,98186.84
2023-05-21T23:02:36.475Z,98187.44
2023-05-21T23:05:46.015Z,98189.72
2023-05-21T23:08:52.273Z,98189.09
2023-05-21T23:11:59.378Z,98170.72
2023-05-21T23:15:07.941Z,98187.88
2023-05-21T23:18:17.846Z,98181.22
2023-05-21T23:21:25.327Z,98183.50
2023-05-21T23:24:46.328Z,98184.13
2023-05-21T23:28:07.584Z,98185.75
2023-05-21T23:31:29.441Z,98179.97
2023-05-21T23:34:53.134Z,98189.84
2023-05-21T23:38:15.930Z,98182.22
2023-05-21T23:41:36.999Z,98180.38
2023-05-21T23:44:44.790Z,98186.31
2023-05-21T23:47:51.368Z,98188.59
2023-05-21T23:51:01.200Z,98175.00
2023-05-21T23:54:08.336Z,98182.19
2023-05-21T23:57:18.006Z,98181.59
